Lake Wildwood, California
Current Conditions -  °F | °C
As of 12:00 AM on Saturday 25 Oct 2014 (Local Time) from KGOO Reporting Station
Clear Clear  
Wind Chill: 14°   Ceiling: Unl
Heat Index: 14°   Visibility: 10mi
Dew Point:   Wind: 7mph
Humidity: 59%   Direction: 140°SE
Pressure: 29.96"   Gusts: NA
Location:  39.1921°N, 121.19°W
Report Text: KGOO 250700Z AUTO 14006KT 10SM CLR 14/06 A2996 RMK AO1
Loading
Personal Weather Stations






























Interactive Weather Map
Tropical Storm Tracking
New forecast layout! Learn more

10-Day Weather Forecast

Advertisements
Track Severe Weather on mobile